Station: Rocky Gully South  

  Atmospheric Gas Attenuation - ITU Rec 676-11   ----------------- dB/100km -----------------
Date Time Temp RH % AH g/m3 Dew Point Wind Direction Speed kph Gust kph Barometer mB Rainfall Since 9am 24GHz 47GHz 76GHz 122GHz 134GHz 241GHz
08/05 09:30 14.7 73 9.19 9.9 19 26 1013.1 0 20.8 26.6 41.7 109.6 105.0 361.8
08/05 09:20 14 74 8.93 9.4 19 22 1013.1 0 20.3 26.4 41.0 107.7 102.5 352.9
08/05 09:10 13.5 77 9.01 9.6 17 19 1013.1 0 20.5 26.6 41.6 109.3 104.2 358.9
08/05 09:00 13 78 8.85 9.3 19 32 1013.1 0 20.2 26.5 41.2 108.2 102.8 353.7
08/05 08:50 12.9 80 9.02 9.5 15 17 1013.1 0 20.5 26.8 42.0 110.2 105.2 362.2
08/05 08:40 12.1 80 8.58 8.8 19 26 1013.1 0 19.6 26.4 40.6 106.5 100.3 344.9
08/05 08:30 11.9 81 8.58 8.7 17 20 1013.1 0 19.6 26.4 40.7 106.8 100.6 345.8
08/05 08:20 11.5 82 8.47 8.5 15 17 1013.1 0 19.4 26.4 40.4 106.1 99.6 342.4
08/05 08:10 11.1 82 8.26 8.1 24 30 1013.1 0 19.0 26.1 39.8 104.3 97.3 334.1
08/05 08:00 10.9 83 8.26 8.1 15 22 1013.1 0 19.0 26.2 39.9 104.6 97.5 335.0
08/05 07:50 10.5 84 8.15 7.9 15 19 1013.1 0 18.8 26.1 39.6 103.9 96.5 331.5
08/05 07:40 10.2 85 8.09 7.8 13 13 1013.1 0 18.7 26.1 39.5 103.7 96.1 329.9
08/05 07:30 10 85 7.99 7.6 15 20 1013.1 0 18.5 26.0 39.2 102.8 95.0 326.0
08/05 07:20 9.8 85 7.89 7.4 15 19 1013.1 0 18.3 25.9 38.9 102.0 93.8 322.0
08/05 07:10 9.7 86 7.93 7.5 17 20 1013.1 0 18.3 26.0 39.1 102.6 94.5 324.3
08/05 07:00 9.7 85 7.84 7.3 17 24 1013.1 0 18.2 25.8 38.7 101.6 93.3 320.1
08/05 06:50 9.6 85 7.79 7.2 15 20 1013.1 0 18.0 25.8 38.6 101.1 92.7 318.1
08/05 06:40 9.8 85 7.89 7.4 19 24 1013.1 0 18.3 25.9 38.9 102.0 93.8 322.0
08/05 06:30 9.7 84 7.75 7.1 19 24 1013.1 0 18.0 25.7 38.4 100.6 92.1 315.8
08/05 06:20 9.7 85 7.84 7.3 17 20 1013.1 0 18.2 25.8 38.7 101.6 93.3 320.1
08/05 06:10 9.3 86 7.73 7.1 17 19 1013.1 0 17.9 25.8 38.5 100.9 92.3 316.4
08/05 06:00 9.2 88 7.86 7.3 17 22 1013.1 0 18.2 26.0 39.1 102.4 94.2 323.1
08/05 05:50 8.8 90 7.84 7.3 17 19 1013.1 0 18.2 26.1 39.2 102.7 94.4 323.8
08/05 05:40 8.6 91 7.82 7.2 15 15 1013.1 0 18.2 26.1 39.2 102.8 94.4 323.6
08/05 05:30 8.7 90 7.79 7.2 13 17 1013.1 0 18.1 26.0 39.0 102.3 93.8 321.8
08/05 05:20 8.9 90 7.89 7.4 13 15 1013.1 0 18.3 26.2 39.3 103.2 95.0 325.8
08/05 05:10 8.8 90 7.84 7.3 11 11 1013.1 0 18.2 26.1 39.2 102.7 94.4 323.8
08/05 05:00 8.9 89 7.8 7.2 11 13 1013.1 0 18.1 26.0 39.0 102.2 93.7 321.4
08/05 04:50 9.2 89 7.95 7.5 11 13 1013.1 0 18.4 26.2 39.4 103.4 95.4 327.4
08/05 04:40 9.4 89 8.05 7.7 9 11 1013.1 0 18.6 26.3 39.8 104.3 96.5 331.4
08/05 04:30 9.5 89 8.1 7.8 11 17 1013.1 0 18.7 26.3 39.9 104.7 97.1 333.3
08/05 04:20 9.5 89 8.1 7.8 13 13 1013.1 0 18.7 26.3 39.9 104.7 97.1 333.3
08/05 04:10 9.6 89 8.16 7.9 11 11 1013.1 0 18.8 26.4 40.1 105.2 97.8 335.8
08/05 04:00 9.8 88 8.17 7.9 11 15 1013.1 0 18.9 26.4 40.0 105.1 97.7 335.4
08/05 03:50 9.9 88 8.22 8 11 13 1013.1 0 19.0 26.4 40.2 105.5 98.2 337.4
08/05 03:40 10 88 8.27 8.1 9 11 1013.1 0 19.1 26.5 40.4 105.9 98.8 339.4
08/05 03:30 10.2 87 8.28 8.1 13 15 1013.1 0 19.1 26.4 40.3 105.8 98.7 339.0
08/05 03:20 10.5 86 8.34 8.3 13 15 1013.1 0 19.2 26.4 40.4 106.0 99.1 340.5
08/05 03:10 10.7 85 8.35 8.3 11 13 1013.1 0 19.2 26.4 40.3 105.9 99.0 340.1
08/05 03:00 10.9 84 8.36 8.3 15 20 1013.1 0 19.2 26.3 40.3 105.7 98.9 339.7
08/05 02:50 11 85 8.51 8.6 15 20 1013.1 0 19.5 26.6 40.9 107.2 100.8 346.5
08/05 02:40 11.1 85 8.56 8.7 13 19 1013.1 0 19.6 26.6 41.0 107.7 101.3 348.4
08/05 02:30 11 86 8.61 8.8 15 20 1013.1 0 19.7 26.7 41.3 108.3 102.2 351.3
08/05 02:20 11 87 8.71 8.9 13 15 1013.1 0 20.0 26.9 41.7 109.5 103.5 356.1
08/05 02:10 11.1 87 8.76 9 15 19 1013.1 0 20.1 27.0 41.8 109.9 104.1 358.0
08/05 02:00 11.1 88 8.87 9.2 15 22 1013.1 0 20.3 27.1 42.3 111.1 105.6 363.4
08/05 01:50 11 89 8.91 9.3 17 20 1013.1 0 20.4 27.2 42.5 111.7 106.3 365.8
08/05 01:40 10.9 90 8.95 9.3 17 20 1013.1 0 20.5 27.3 42.8 112.3 107.0 368.2
08/05 01:30 11 90 9.01 9.4 15 20 1013.1 0 20.6 27.4 43.0 112.8 107.7 370.6
08/05 01:20 11.1 89 8.97 9.4 15 19 1013.1 0 20.5 27.3 42.7 112.2 107.0 368.2
08/05 01:10 11.2 89 9.02 9.5 17 19 1013.1 0 20.6 27.4 42.9 112.7 107.6 370.2
08/05 01:00 11.3 89 9.08 9.6 19 24 1013.1 0 20.7 27.4 43.1 113.2 108.2 372.6
08/05 00:50 11.4 88 9.03 9.5 17 19 1013.1 0 20.6 27.3 42.8 112.5 107.4 369.7
08/05 00:40 11.6 88 9.15 9.7 17 20 1013.1 0 20.9 27.5 43.2 113.5 108.8 374.6
08/05 00:30 11.6 87 9.04 9.5 17 28 1013.1 0 20.6 27.3 42.7 112.3 107.3 369.2
08/05 00:20 11.9 86 9.11 9.6 19 22 1013.1 0 20.8 27.3 42.9 112.7 107.8 371.2
08/05 00:10 12.1 86 9.22 9.8 24 30 1013.1 0 21.0 27.4 43.2 113.6 109.1 375.5
08/05 00:00 12 86 9.17 9.7 22 32 1013.1 0 20.9 27.4 43.1 113.2 108.5 373.6
07/05 23:50 12.1 85 9.12 9.7 26 28 1013.1 0 20.8 27.3 42.8 112.5 107.7 370.7
07/05 23:40 11.9 86 9.11 9.6 19 22 1013.1 0 20.8 27.3 42.9 112.7 107.8 371.2
07/05 23:30 11.8 86 9.05 9.5 19 26 1013.1 0 20.7 27.2 42.7 112.1 107.1 368.8
07/05 23:20 11.8 86 9.05 9.5 19 24 1013.1 0 20.7 27.2 42.7 112.1 107.1 368.8
07/05 23:10 11.7 87 9.1 9.6 19 22 1013.1 0 20.8 27.3 42.9 112.8 108.0 371.7
07/05 23:00 11.6 88 9.15 9.7 15 20 1013.1 0 20.9 27.5 43.2 113.5 108.8 374.6
07/05 22:50 11.6 88 9.15 9.7 15 19 1013.1 0 20.9 27.5 43.2 113.5 108.8 374.6
07/05 22:40 11.6 88 9.15 9.7 15 17 1013.1 0 20.9 27.5 43.2 113.5 108.8 374.6
07/05 22:30 11.6 88 9.15 9.7 13 19 1013.1 0 20.9 27.5 43.2 113.5 108.8 374.6
07/05 22:20 11.7 88 9.21 9.8 15 17 1013.1 0 21.0 27.5 43.4 114.1 109.5 377.0
07/05 22:10 11.8 87 9.16 9.7 11 13 1013.1 0 20.9 27.4 43.1 113.4 108.6 374.1
07/05 22:00 12.1 87 9.33 10 13 20 1013.1 0 21.2 27.6 43.7 114.8 110.6 380.9
07/05 21:50 12.2 87 9.39 10.1 17 20 1013.1 0 21.4 27.7 43.9 115.4 111.3 383.3
07/05 21:40 12.2 87 9.39 10.1 13 15 1013.1 0 21.4 27.7 43.9 115.4 111.3 383.3
07/05 21:30 12.1 88 9.44 10.2 15 22 1013.1 0 21.5 27.8 44.2 116.1 112.1 386.2
07/05 21:20 11.8 89 9.37 10 15 20 1013.1 0 21.3 27.8 44.0 115.7 111.6 384.3
07/05 21:10 11.8 89 9.37 10 9 13 1013.1 0 21.3 27.8 44.0 115.7 111.6 384.3
07/05 21:00 12.1 90 9.65 10.5 13 17 1013.1 0 21.9 28.2 45.1 118.5 115.0 396.5
07/05 20:50 12.2 89 9.61 10.4 11 13 1013.1 0 21.8 28.1 44.8 117.9 114.3 394.0
07/05 20:40 12.3 89 9.67 10.5 11 13 1013.1 0 22.0 28.1 45.0 118.4 115.0 396.5
07/05 20:30 12.4 89 9.73 10.6 13 19 1013.1 0 22.1 28.2 45.2 118.9 115.7 398.9
07/05 20:20 12.5 89 9.79 10.7 13 15 1013.1 0 22.2 28.3 45.4 119.5 116.4 401.3
07/05 20:10 12.6 89 9.85 10.8 13 15 1013.1 0 22.3 28.3 45.6 120.0 117.1 403.7
07/05 20:00 12.8 89 9.97 11 13 17 1013.1 0 22.6 28.5 46.0 121.0 118.5 408.6
07/05 19:50 13 88 9.98 11.1 13 15 1013.1 0 22.6 28.4 45.9 120.8 118.3 408.0
07/05 19:40 13.2 88 10.1 11.3 13 17 1013.1 0 22.8 28.6 46.3 121.9 119.7 412.8
07/05 19:30 13.3 87 10.05 11.2 13 19 1013.1 0 22.7 28.5 46.1 121.2 118.8 409.9
07/05 19:20 13.5 86 10.06 11.2 15 17 1013.1 0 22.7 28.4 46.0 121.0 118.7 409.3
07/05 19:10 13.7 85 10.07 11.2 15 17 1013.1 0 22.7 28.4 45.9 120.8 118.5 408.7
07/05 19:00 13.9 84 10.07 11.2 13 17 1013.1 0 22.7 28.3 45.8 120.5 118.2 407.7
07/05 18:50 14.1 82 9.95 11.1 13 15 1013.1 0 22.5 28.0 45.2 118.8 116.2 400.8
07/05 18:40 14.3 79 9.71 10.7 13 15 1013.1 0 21.9 27.6 44.1 115.8 112.6 388.3
07/05 18:30 14.5 77 9.58 10.5 13 17 1013.1 0 21.7 27.3 43.4 114.1 110.6 381.1
07/05 18:20 14.9 75 9.56 10.5 15 17 1013.1 0 21.6 27.1 43.1 113.3 109.7 378.2
07/05 18:10 15.1 74 9.55 10.5 15 19 1013.1 0 21.6 27.1 43.0 112.9 109.3 376.8
07/05 18:00 15.2 72 9.35 10.2 17 20 1013.1 0 21.1 26.7 42.1 110.6 106.5 367.0
07/05 17:50 15.5 71 9.38 10.3 19 24 1013.1 0 21.2 26.7 42.1 110.5 106.5 367.0
07/05 17:40 15.6 70 9.31 10.2 15 17 1013.1 0 21.0 26.5 41.7 109.6 105.4 363.2
07/05 17:30 15.9 70 9.48 10.4 15 20 1013.1 0 21.4 26.7 42.2 111.0 107.2 369.7
07/05 17:20 16.3 68 9.43 10.4 15 19 1013.1 0 21.2 26.5 41.8 109.9 106.0 365.5
07/05 17:10 16.5 67 9.41 10.4 15 17 1013.1 0 21.2 26.4 41.6 109.4 105.5 363.7
07/05 17:00 16.9 65 9.35 10.3 13 17 1013.1 0 21.0 26.2 41.2 108.2 104.2 359.1

Last Refresh: 08-May-2026 11:05:31

Bureau of Meteorology